DEL weather

Indira Gandhi International Airport
New Delhi, Delhi, India

Public forecast

Using degrees Celsius for public forecast. Weather courtesy of forecast.io.

Current aviation weather report (METAR) for Indira Gandhi International Airport

Retrieved 2019/11/12 12:30 UTC (0 seconds ago):

VIDP 121230Z 24005KT 1800 R28/P2000 R29/P2000 FU NSC 24/10 Q1013 NOSIG

Aviation forecast (TAF) for Indira Gandhi International Airport

Retrieved 2019/11/12 12:00 UTC (19 minutes ago):

TAF VIDP 121100Z 1212/1318 31006KT 1100 FU NSC BECMG 1213/1215 VRB02KT 2000 FU HZ SCT100 BECMG 1300/1302 25004KT 0600 MIFG SCT100 BECMG 1309/1311 33006KT 1000 FU BECMG 1313/1315 VRB02KT 1800 FU HZ FEW040 SCT100